createdAt,value
2022-09-24T00:01:53.081Z,100653.22
2022-09-24T00:04:26.275Z,100645.28
2022-09-24T00:06:57.531Z,100638.50
2022-09-24T00:09:28.858Z,100645.47
2022-09-24T00:12:00.979Z,100651.69
2022-09-24T00:14:32.367Z,100647.22
2022-09-24T00:17:03.618Z,100640.13
2022-09-24T00:19:34.880Z,100634.13
2022-09-24T00:22:06.169Z,100644.50
2022-09-24T00:24:56.937Z,100635.59
2022-09-24T00:27:28.254Z,100640.97
2022-09-24T00:29:59.528Z,100641.00
2022-09-24T00:32:30.850Z,100636.59
2022-09-24T00:35:02.095Z,100629.53
2022-09-24T00:37:33.355Z,100628.78
2022-09-24T00:40:05.961Z,100630.50
2022-09-24T00:42:37.303Z,100635.78
2022-09-24T00:45:11.631Z,100628.69
2022-09-24T00:47:44.760Z,100611.25
2022-09-24T00:50:31.495Z,100624.34
2022-09-24T00:53:17.912Z,100619.91
2022-09-24T00:55:54.140Z,100617.25
2022-09-24T00:58:26.684Z,100605.81
2022-09-24T01:01:05.554Z,100617.31
2022-09-24T01:03:42.273Z,100611.09
2022-09-24T01:06:13.832Z,100600.56
2022-09-24T01:08:46.105Z,100609.34
2022-09-24T01:11:44.223Z,100611.16
2022-09-24T01:14:26.979Z,100613.00
2022-09-24T01:17:32.070Z,100612.13
2022-09-24T01:20:16.412Z,100604.16
2022-09-24T01:23:03.381Z,100611.34
2022-09-24T01:26:19.821Z,100607.84
2022-09-24T01:29:05.828Z,100605.22
2022-09-24T01:31:46.869Z,100609.69
2022-09-24T01:34:26.834Z,100605.28
2022-09-24T01:37:00.048Z,100599.19
2022-09-24T01:39:33.136Z,100592.25
2022-09-24T01:42:05.487Z,100598.25
2022-09-24T01:44:39.681Z,100582.41
2022-09-24T01:47:19.975Z,100573.75
2022-09-24T01:49:53.639Z,100594.66
2022-09-24T01:52:31.736Z,100593.78
2022-09-24T01:55:07.671Z,100591.19
2022-09-24T01:57:45.428Z,100592.03
2022-09-24T02:00:21.566Z,100587.69
2022-09-24T02:02:55.679Z,100584.97
2022-09-24T02:05:38.813Z,100574.72
2022-09-24T02:08:22.184Z,100575.59
2022-09-24T02:11:02.398Z,100569.41
2022-09-24T02:13:39.547Z,100574.88
2022-09-24T02:16:14.664Z,100576.47
2022-09-24T02:18:48.278Z,100581.75
2022-09-24T02:21:21.915Z,100560.66
2022-09-24T02:24:10.731Z,100559.84
2022-09-24T02:26:42.697Z,100582.72
2022-09-24T02:29:14.278Z,100572.31
2022-09-24T02:31:49.488Z,100576.53
2022-09-24T02:34:29.873Z,100573.91
2022-09-24T02:37:06.558Z,100575.66
2022-09-24T02:39:38.115Z,100576.63
2022-09-24T02:42:11.699Z,100581.06
2022-09-24T02:44:43.045Z,100571.34
2022-09-24T02:47:14.694Z,100574.00
2022-09-24T02:49:45.979Z,100573.19
2022-09-24T02:52:18.674Z,100571.44
2022-09-24T02:54:50.542Z,100567.94
2022-09-24T02:57:21.856Z,100553.97
2022-09-24T02:59:53.141Z,100572.44
2022-09-24T03:02:24.515Z,100566.28
2022-09-24T03:04:56.334Z,100569.88
2022-09-24T03:07:27.666Z,100570.78
2022-09-24T03:09:59.477Z,100545.41
2022-09-24T03:12:30.742Z,100561.25
2022-09-24T03:15:02.014Z,100565.69
2022-09-24T03:17:33.306Z,100568.47
2022-09-24T03:20:05.059Z,100549.09
2022-09-24T03:22:36.343Z,100566.72
2022-09-24T03:25:08.211Z,100555.19
2022-09-24T03:27:39.530Z,100561.44
2022-09-24T03:30:30.186Z,100548.16
2022-09-24T03:33:01.433Z,100556.16
2022-09-24T03:35:32.981Z,100540.47
2022-09-24T03:38:04.261Z,100547.34
2022-09-24T03:40:35.628Z,100543.91
2022-09-24T03:43:07.026Z,100553.53
2022-09-24T03:45:39.536Z,100549.09
2022-09-24T03:48:11.099Z,100547.34
2022-09-24T03:50:43.094Z,100543.75
2022-09-24T03:53:15.470Z,100543.75
2022-09-24T03:55:49.258Z,100543.75
2022-09-24T03:58:20.530Z,100541.09
2022-09-24T04:00:53.717Z,100541.16
2022-09-24T04:03:25.713Z,100531.34
2022-09-24T04:05:57.098Z,100532.28
2022-09-24T04:08:28.407Z,100538.53
2022-09-24T04:11:00.029Z,100531.44
2022-09-24T04:13:31.398Z,100528.16
2022-09-24T04:16:04.173Z,100534.16
2022-09-24T04:18:39.086Z,100536.00
2022-09-24T04:21:10.785Z,100528.88
2022-09-24T04:23:42.380Z,100533.34
2022-09-24T04:26:13.701Z,100536.91
2022-09-24T04:28:44.983Z,100535.13
2022-09-24T04:31:16.412Z,100535.13
2022-09-24T04:33:47.755Z,100535.13
2022-09-24T04:36:19.178Z,100517.69
2022-09-24T04:38:50.925Z,100527.22
2022-09-24T04:41:22.169Z,100523.69
2022-09-24T04:43:53.425Z,100521.06
2022-09-24T04:46:24.792Z,100514.16
2022-09-24T04:48:56.184Z,100519.28
2022-09-24T04:51:27.522Z,100514.88
2022-09-24T04:53:59.750Z,100508.03
2022-09-24T04:56:31.597Z,100516.72
2022-09-24T04:59:02.890Z,100516.03
2022-09-24T05:01:34.341Z,100510.84
2022-09-24T05:04:05.794Z,100518.69
2022-09-24T05:06:37.047Z,100516.22
2022-09-24T05:09:12.395Z,100512.81
2022-09-24T05:11:44.064Z,100523.28
2022-09-24T05:14:15.334Z,100517.22
2022-09-24T05:16:49.212Z,100519.75
2022-09-24T05:19:21.643Z,100524.16
2022-09-24T05:21:53.059Z,100527.69
2022-09-24T05:24:24.321Z,100524.16
2022-09-24T05:27:10.772Z,100522.47
2022-09-24T05:29:43.635Z,100519.72
2022-09-24T05:32:18.287Z,100518.84
2022-09-24T05:34:50.904Z,100519.72
2022-09-24T05:37:22.192Z,100517.97
2022-09-24T05:39:54.729Z,100518.06
2022-09-24T05:42:25.989Z,100518.88
2022-09-24T05:44:57.271Z,100522.41
2022-09-24T05:47:28.574Z,100506.63
2022-09-24T05:50:00.655Z,100513.56
2022-09-24T05:52:31.910Z,100519.75
2022-09-24T05:55:03.527Z,100518.06
2022-09-24T05:57:34.919Z,100505.75
2022-09-24T06:00:07.336Z,100522.41
2022-09-24T06:02:38.823Z,100528.63
2022-09-24T06:05:10.728Z,100510.94
2022-09-24T06:07:41.981Z,100526.72
2022-09-24T06:10:13.285Z,100532.84
2022-09-24T06:12:44.983Z,100530.13
2022-09-24T06:15:16.365Z,100529.31
2022-09-24T06:17:47.860Z,100535.38
2022-09-24T06:20:19.312Z,100513.47
2022-09-24T06:22:50.637Z,100539.78
2022-09-24T06:25:21.948Z,100533.53
2022-09-24T06:28:01.199Z,100530.78
2022-09-24T06:30:35.425Z,100519.34
2022-09-24T06:33:15.824Z,100511.53
2022-09-24T06:35:48.394Z,100530.69
2022-09-24T06:38:26.493Z,100534.16
2022-09-24T06:41:04.565Z,100538.53
2022-09-24T06:43:36.097Z,100530.63
2022-09-24T06:46:07.452Z,100521.75
2022-09-24T06:48:39.592Z,100548.75
2022-09-24T06:51:10.908Z,100542.31
2022-09-24T06:53:42.173Z,100548.25
2022-09-24T06:56:13.714Z,100536.69
2022-09-24T06:58:45.033Z,100545.31
2022-09-24T07:01:16.368Z,100538.91
2022-09-24T07:03:47.662Z,100544.19
2022-09-24T07:06:18.985Z,100545.91
2022-09-24T07:08:51.584Z,100542.31
2022-09-24T07:11:23.456Z,100551.84
2022-09-24T07:13:54.707Z,100557.03
2022-09-24T07:16:26.017Z,100552.47
2022-09-24T07:18:58.180Z,100541.81
2022-09-24T07:21:29.646Z,100551.53
2022-09-24T07:24:00.912Z,100555.97
2022-09-24T07:26:32.210Z,100554.97
2022-09-24T07:29:04.191Z,100540.78
2022-09-24T07:31:36.385Z,100559.97
2022-09-24T07:34:09.026Z,100556.38
2022-09-24T07:36:41.590Z,100563.50
2022-09-24T07:39:12.875Z,100570.59
2022-09-24T07:41:44.527Z,100564.31
2022-09-24T07:44:16.021Z,100566.94
2022-09-24T07:46:48.630Z,100553.59
2022-09-24T07:49:19.941Z,100551.66
2022-09-24T07:51:51.249Z,100565.44
2022-09-24T07:54:22.627Z,100558.00
2022-09-24T07:56:54.305Z,100560.38
2022-09-24T07:59:25.793Z,100561.16
2022-09-24T08:01:57.563Z,100563.59
2022-09-24T08:04:29.051Z,100555.59
2022-09-24T08:07:01.152Z,100566.75
2022-09-24T08:09:32.999Z,100569.53
2022-09-24T08:12:04.895Z,100572.66
2022-09-24T08:14:36.277Z,100574.97
2022-09-24T08:17:07.576Z,100575.63
2022-09-24T08:19:40.154Z,100574.69
2022-09-24T08:22:12.144Z,100573.66
2022-09-24T08:24:43.476Z,100571.75
2022-09-24T08:27:17.342Z,100580.28
2022-09-24T08:29:48.857Z,100573.78
2022-09-24T08:32:20.289Z,100563.09
2022-09-24T08:34:52.851Z,100572.50
2022-09-24T08:37:24.309Z,100574.25
2022-09-24T08:39:55.917Z,100567.97
2022-09-24T08:42:36.182Z,100577.63
2022-09-24T08:45:29.631Z,100574.19
2022-09-24T08:48:13.698Z,100577.72
2022-09-24T08:50:58.179Z,100570.59
2022-09-24T08:53:37.908Z,100584.34
2022-09-24T08:56:11.160Z,100587.03
2022-09-24T08:58:58.998Z,100583.59
2022-09-24T09:01:45.924Z,100581.03
2022-09-24T09:04:40.861Z,100576.63
2022-09-24T09:07:23.143Z,100583.53
2022-09-24T09:10:03.417Z,100591.56
2022-09-24T09:12:39.518Z,100579.25
2022-09-24T09:15:13.484Z,100582.50
2022-09-24T09:18:01.579Z,100594.81
2022-09-24T09:20:41.390Z,100597.31
2022-09-24T09:23:21.636Z,100591.13
2022-09-24T09:25:57.509Z,100589.53
2022-09-24T09:28:29.697Z,100589.69
2022-09-24T09:31:19.962Z,100592.53
2022-09-24T09:34:03.224Z,100595.41
2022-09-24T09:36:54.817Z,100594.81
2022-09-24T09:40:03.711Z,100596.91
2022-09-24T09:42:37.034Z,100589.94
2022-09-24T09:45:23.077Z,100602.25
2022-09-24T09:47:59.066Z,100596.97
2022-09-24T09:50:36.800Z,100603.19
2022-09-24T09:53:25.361Z,100600.44
2022-09-24T09:56:01.371Z,100604.69
2022-09-24T09:58:52.872Z,100580.06
2022-09-24T10:01:32.022Z,100601.03
2022-09-24T10:04:04.843Z,100594.00
2022-09-24T10:06:36.837Z,100583.88
2022-09-24T10:09:13.609Z,100594.00
2022-09-24T10:11:45.354Z,100594.44
2022-09-24T10:14:22.023Z,100592.53
2022-09-24T10:16:56.118Z,100594.09
2022-09-24T10:19:34.061Z,100591.34
2022-09-24T10:22:21.635Z,100587.66
2022-09-24T10:24:55.872Z,100601.63
2022-09-24T10:27:32.903Z,100595.47
2022-09-24T10:30:34.569Z,100594.34
2022-09-24T10:33:06.377Z,100587.94
2022-09-24T10:35:38.660Z,100586.56
2022-09-24T10:38:22.086Z,100590.59
2022-09-24T10:40:53.545Z,100598.38
2022-09-24T10:43:24.922Z,100593.09
2022-09-24T10:46:14.717Z,100595.69
2022-09-24T10:49:17.515Z,100589.66
2022-09-24T10:52:12.529Z,100593.63
2022-09-24T10:54:54.158Z,100599.59
2022-09-24T10:57:55.498Z,100600.69
2022-09-24T11:00:38.568Z,100605.66
2022-09-24T11:03:24.401Z,100598.44
2022-09-24T11:06:29.726Z,100593.19
2022-09-24T11:09:13.746Z,100582.09
2022-09-24T11:12:15.469Z,100598.88
2022-09-24T11:14:55.445Z,100588.19
2022-09-24T11:18:02.215Z,100590.78
2022-09-24T11:20:38.600Z,100578.28
2022-09-24T11:23:54.369Z,100587.84
2022-09-24T11:26:57.920Z,100586.63
2022-09-24T11:30:06.997Z,100583.69
2022-09-24T11:33:04.287Z,100595.94
2022-09-24T11:35:57.488Z,100581.78
2022-09-24T11:38:47.992Z,100554.16
2022-09-24T11:41:33.412Z,100583.00
2022-09-24T11:44:31.640Z,100583.47
2022-09-24T11:47:26.267Z,100585.63
2022-09-24T11:50:00.886Z,100584.47
2022-09-24T11:52:41.097Z,100594.03
2022-09-24T11:55:21.722Z,100591.00
2022-09-24T11:58:04.650Z,100591.41
2022-09-24T12:00:42.894Z,100584.88
2022-09-24T12:03:26.262Z,100583.28
2022-09-24T12:06:04.006Z,100590.41
2022-09-24T12:08:43.665Z,100591.13
2022-09-24T12:11:22.957Z,100588.28
2022-09-24T12:14:11.454Z,100584.72
2022-09-24T12:16:45.720Z,100589.53
2022-09-24T12:19:32.667Z,100586.50
2022-09-24T12:22:05.737Z,100584.84
2022-09-24T12:24:47.419Z,100577.66
2022-09-24T12:27:36.707Z,100571.94
2022-09-24T12:30:33.004Z,100584.56
2022-09-24T12:33:29.542Z,100586.66
2022-09-24T12:36:20.452Z,100569.13
2022-09-24T12:38:56.885Z,100574.19
2022-09-24T12:41:34.146Z,100578.69
2022-09-24T12:44:11.198Z,100581.00
2022-09-24T12:46:56.660Z,100576.88
2022-09-24T12:49:35.403Z,100571.06
2022-09-24T12:52:19.065Z,100572.16
2022-09-24T12:55:02.857Z,100567.88
2022-09-24T12:57:43.257Z,100566.34
2022-09-24T13:00:41.327Z,100573.59
2022-09-24T13:03:47.382Z,100563.16
2022-09-24T13:06:37.768Z,100572.47
2022-09-24T13:09:38.989Z,100563.03
2022-09-24T13:12:14.247Z,100562.38
2022-09-24T13:14:54.740Z,100556.44
2022-09-24T13:17:26.304Z,100560.06
2022-09-24T13:20:00.754Z,100562.66
2022-09-24T13:22:34.711Z,100556.50
2022-09-24T13:25:08.897Z,100559.63
2022-09-24T13:27:42.469Z,100557.81
2022-09-24T13:30:19.702Z,100557.75
2022-09-24T13:33:00.267Z,100546.38
2022-09-24T13:35:43.425Z,100560.63
2022-09-24T13:38:34.737Z,100566.13
2022-09-24T13:41:25.853Z,100556.50
2022-09-24T13:44:04.471Z,100551.94
2022-09-24T13:46:40.974Z,100564.13
2022-09-24T13:49:17.612Z,100559.03
2022-09-24T13:51:59.704Z,100565.06
2022-09-24T13:54:39.616Z,100566.47
2022-09-24T13:57:21.801Z,100564.44
2022-09-24T14:00:21.071Z,100557.94
2022-09-24T14:02:57.257Z,100560.47
2022-09-24T14:05:31.249Z,100568.22
2022-09-24T14:08:09.738Z,100560.84
2022-09-24T14:10:42.025Z,100559.41
2022-09-24T14:13:21.353Z,100568.81
2022-09-24T14:16:14.314Z,100569.47
2022-09-24T14:18:47.030Z,100552.72
2022-09-24T14:21:30.316Z,100564.03
2022-09-24T14:24:18.992Z,100560.94
2022-09-24T14:27:13.398Z,100553.91
2022-09-24T14:29:59.330Z,100547.81
2022-09-24T14:32:56.935Z,100542.59
2022-09-24T14:35:35.535Z,100551.50
2022-09-24T14:38:24.806Z,100546.22
2022-09-24T14:41:02.779Z,100548.25
2022-09-24T14:44:08.668Z,100547.50
2022-09-24T14:46:52.712Z,100529.25
2022-09-24T14:49:31.010Z,100548.38
2022-09-24T14:52:04.227Z,100545.69
2022-09-24T14:54:40.260Z,100536.94
2022-09-24T14:57:23.214Z,100539.47
2022-09-24T14:59:54.632Z,100545.31
2022-09-24T15:02:28.637Z,100543.72
2022-09-24T15:05:07.730Z,100535.03
2022-09-24T15:07:39.870Z,100543.22
2022-09-24T15:10:22.269Z,100541.41
2022-09-24T15:12:53.493Z,100550.38
2022-09-24T15:15:31.991Z,100531.97
2022-09-24T15:18:03.863Z,100546.31
2022-09-24T15:20:35.176Z,100537.59
2022-09-24T15:23:06.571Z,100523.91
2022-09-24T15:25:38.458Z,100541.38
2022-09-24T15:28:14.214Z,100536.13
2022-09-24T15:30:45.532Z,100537.88
2022-09-24T15:33:17.512Z,100527.56
2022-09-24T15:35:49.124Z,100545.91
2022-09-24T15:38:20.663Z,100543.38
2022-09-24T15:40:53.716Z,100545.25
2022-09-24T15:43:25.334Z,100525.25
2022-09-24T15:45:56.668Z,100537.34
2022-09-24T15:48:28.077Z,100537.50
2022-09-24T15:51:05.846Z,100522.75
2022-09-24T15:53:41.072Z,100526.31
2022-09-24T15:56:12.431Z,100538.03
2022-09-24T15:58:43.693Z,100539.09
2022-09-24T16:01:18.170Z,100523.56
2022-09-24T16:03:49.553Z,100538.63
2022-09-24T16:06:21.494Z,100540.50
2022-09-24T16:08:52.736Z,100543.25
2022-09-24T16:11:24.003Z,100547.88
2022-09-24T16:13:55.298Z,100548.94
2022-09-24T16:16:26.626Z,100548.19
2022-09-24T16:18:58.101Z,100544.03
2022-09-24T16:21:29.346Z,100550.53
2022-09-24T16:24:01.263Z,100558.75
2022-09-24T16:26:34.308Z,100541.31
2022-09-24T16:29:07.056Z,100547.41
2022-09-24T16:31:38.488Z,100554.66
2022-09-24T16:34:11.377Z,100548.53
2022-09-24T16:36:42.636Z,100547.06
2022-09-24T16:39:15.806Z,100558.69
2022-09-24T16:41:51.312Z,100550.91
2022-09-24T16:44:22.657Z,100544.19
2022-09-24T16:46:53.986Z,100561.06
2022-09-24T16:49:25.534Z,100534.88
2022-09-24T16:51:56.838Z,100552.28
2022-09-24T16:54:29.545Z,100552.28
2022-09-24T16:57:01.790Z,100550.59
2022-09-24T16:59:33.234Z,100542.94
2022-09-24T17:02:04.597Z,100542.03
2022-09-24T17:04:36.024Z,100554.22
2022-09-24T17:07:07.364Z,100556.06
2022-09-24T17:09:58.729Z,100547.25
2022-09-24T17:12:30.197Z,100558.00
2022-09-24T17:15:04.304Z,100557.25
2022-09-24T17:17:43.186Z,100551.28
2022-09-24T17:20:18.786Z,100543.44
2022-09-24T17:22:50.180Z,100560.16
2022-09-24T17:25:21.549Z,100559.34
2022-09-24T17:27:52.950Z,100554.88
2022-09-24T17:30:24.419Z,100555.88
2022-09-24T17:32:55.711Z,100554.13
2022-09-24T17:35:27.033Z,100556.97
2022-09-24T17:38:00.516Z,100532.66
2022-09-24T17:40:31.857Z,100545.78
2022-09-24T17:43:03.995Z,100553.56
2022-09-24T17:45:35.542Z,100552.75
2022-09-24T17:48:06.940Z,100558.09
2022-09-24T17:50:38.246Z,100562.50
2022-09-24T17:53:14.971Z,100556.22
2022-09-24T17:55:50.976Z,100550.88
2022-09-24T17:58:22.644Z,100556.22
2022-09-24T18:00:54.917Z,100563.44
2022-09-24T18:03:26.175Z,100569.66
2022-09-24T18:06:01.803Z,100565.19
2022-09-24T18:08:37.276Z,100558.97
2022-09-24T18:11:10.471Z,100571.41
2022-09-24T18:13:41.921Z,100566.91
2022-09-24T18:16:16.044Z,100566.91
2022-09-24T18:18:50.930Z,100564.25
2022-09-24T18:21:24.062Z,100565.25
2022-09-24T18:23:56.902Z,100570.53
2022-09-24T18:26:34.146Z,100569.66
2022-09-24T18:29:16.723Z,100572.44
2022-09-24T18:31:49.293Z,100569.94
2022-09-24T18:34:20.684Z,100573.44
2022-09-24T18:36:51.963Z,100581.44
2022-09-24T18:39:25.513Z,100571.88
2022-09-24T18:41:57.358Z,100571.00
2022-09-24T18:44:28.651Z,100585.22
2022-09-24T18:46:59.895Z,100587.91
2022-09-24T18:49:31.227Z,100581.69
2022-09-24T18:52:02.506Z,100583.50
2022-09-24T18:54:34.031Z,100580.88
2022-09-24T18:57:05.559Z,100581.81
2022-09-24T18:59:44.995Z,100587.16
2022-09-24T19:02:16.541Z,100584.66
2022-09-24T19:04:47.883Z,100595.41
2022-09-24T19:07:19.253Z,100588.38
2022-09-24T19:09:50.587Z,100591.16
2022-09-24T19:12:21.828Z,100586.78
2022-09-24T19:14:54.242Z,100588.66
2022-09-24T19:17:26.545Z,100590.56
2022-09-24T19:19:59.049Z,100592.47
2022-09-24T19:22:30.433Z,100589.91
2022-09-24T19:25:01.823Z,100584.69
2022-09-24T19:27:33.199Z,100579.44
2022-09-24T19:30:04.983Z,100573.53
2022-09-24T19:32:37.084Z,100592.91
2022-09-24T19:35:08.592Z,100589.44
2022-09-24T19:37:40.294Z,100576.56
2022-09-24T19:40:13.134Z,100591.34
2022-09-24T19:42:44.430Z,100598.47
2022-09-24T19:45:15.742Z,100595.88
2022-09-24T19:47:47.063Z,100590.47
2022-09-24T19:50:19.285Z,100591.34
2022-09-24T19:52:51.849Z,100582.47
2022-09-24T19:55:27.791Z,100587.75
2022-09-24T19:58:01.349Z,100586.00
2022-09-24T20:00:33.470Z,100585.13
2022-09-24T20:03:05.108Z,100580.66
2022-09-24T20:05:37.153Z,100578.84
2022-09-24T20:08:11.193Z,100578.91
2022-09-24T20:10:43.111Z,100581.59
2022-09-24T20:13:14.456Z,100582.50
2022-09-24T20:15:45.877Z,100579.78
2022-09-24T20:18:17.739Z,100585.13
2022-09-24T20:20:48.994Z,100585.13
2022-09-24T20:23:23.893Z,100572.69
2022-09-24T20:26:14.294Z,100585.13
2022-09-24T20:28:45.654Z,100579.28
2022-09-24T20:31:19.077Z,100589.78
2022-09-24T20:33:50.600Z,100564.34
2022-09-24T20:36:24.360Z,100588.09
2022-09-24T20:38:58.738Z,100581.91
2022-09-24T20:41:29.982Z,100592.47
2022-09-24T20:44:01.551Z,100584.47
2022-09-24T20:46:32.891Z,100576.59
2022-09-24T20:49:04.953Z,100585.38
2022-09-24T20:51:37.120Z,100582.13
2022-09-24T20:54:08.857Z,100591.03
2022-09-24T20:56:40.217Z,100590.22
2022-09-24T20:59:11.823Z,100598.25
2022-09-24T21:01:44.709Z,100594.72
2022-09-24T21:04:17.190Z,100589.53
2022-09-24T21:06:49.524Z,100588.63
2022-09-24T21:09:20.786Z,100581.75
2022-09-24T21:11:53.031Z,100587.84
2022-09-24T21:14:24.515Z,100589.59
2022-09-24T21:16:56.381Z,100594.06
2022-09-24T21:19:27.889Z,100590.56
2022-09-24T21:21:59.695Z,100586.22
2022-09-24T21:24:31.780Z,100590.72
2022-09-24T21:27:05.176Z,100577.53
2022-09-24T21:29:36.451Z,100584.72
2022-09-24T21:32:07.697Z,100588.38
2022-09-24T21:34:39.218Z,100593.81
2022-09-24T21:37:14.530Z,100589.50
2022-09-24T21:39:46.167Z,100594.91
2022-09-24T21:42:19.626Z,100590.53
2022-09-24T21:44:51.030Z,100587.81
2022-09-24T21:47:22.298Z,100585.09
2022-09-24T21:49:53.561Z,100585.09
2022-09-24T21:52:26.534Z,100587.78
2022-09-24T21:54:57.865Z,100587.72
2022-09-24T21:57:29.105Z,100588.53
2022-09-24T22:00:00.589Z,100586.69
2022-09-24T22:02:31.934Z,100593.63
2022-09-24T22:05:03.370Z,100586.44
2022-09-24T22:07:34.609Z,100600.59
2022-09-24T22:10:06.498Z,100584.56
2022-09-24T22:12:37.789Z,100596.19
2022-09-24T22:15:10.236Z,100594.38
2022-09-24T22:17:42.304Z,100596.19
2022-09-24T22:20:13.561Z,100602.38
2022-09-24T22:22:44.923Z,100593.50
2022-09-24T22:25:16.254Z,100564.53
2022-09-24T22:27:47.697Z,100579.41
2022-09-24T22:30:18.978Z,100575.84
2022-09-24T22:32:50.214Z,100578.56
2022-09-24T22:35:43.338Z,100576.84
2022-09-24T22:38:16.189Z,100570.72
2022-09-24T22:40:47.879Z,100581.47
2022-09-24T22:43:19.293Z,100575.25
2022-09-24T22:45:50.723Z,100579.72
2022-09-24T22:48:22.001Z,100576.16
2022-09-24T22:50:53.425Z,100577.09
2022-09-24T22:53:25.207Z,100573.50
2022-09-24T22:56:14.980Z,100565.00
2022-09-24T22:58:52.298Z,100567.56
2022-09-24T23:01:26.387Z,100579.88
2022-09-24T23:03:58.537Z,100584.38
2022-09-24T23:06:31.326Z,100569.41
2022-09-24T23:09:03.682Z,100578.31
2022-09-24T23:11:35.658Z,100585.19
2022-09-24T23:14:12.636Z,100584.28
2022-09-24T23:16:44.303Z,100582.53
2022-09-24T23:19:19.133Z,100577.19
2022-09-24T23:21:50.408Z,100579.00
2022-09-24T23:24:21.961Z,100581.72
2022-09-24T23:26:54.261Z,100581.72
2022-09-24T23:29:25.592Z,100561.50
2022-09-24T23:31:56.861Z,100572.69
2022-09-24T23:34:28.158Z,100573.56
2022-09-24T23:36:59.611Z,100569.91
2022-09-24T23:39:30.892Z,100578.84
2022-09-24T23:42:02.136Z,100570.84
2022-09-24T23:44:34.517Z,100576.16
2022-09-24T23:47:05.903Z,100569.09
2022-09-24T23:49:37.166Z,100576.22
2022-09-24T23:52:08.434Z,100579.00
2022-09-24T23:54:40.231Z,100579.09
2022-09-24T23:57:11.582Z,100572.22
2022-09-24T23:59:42.866Z,100575.03
